createdAt,value
2018-06-07T00:00:08.020Z,143.60
2018-06-07T00:02:39.531Z,138.95
2018-06-07T00:05:10.505Z,141.20
2018-06-07T00:07:41.914Z,142.25
2018-06-07T00:10:12.983Z,138.25
2018-06-07T00:12:44.277Z,139.70
2018-06-07T00:15:15.463Z,145.45
2018-06-07T00:17:46.744Z,134.87
2018-06-07T00:20:19.217Z,137.47
2018-06-07T00:22:50.437Z,140.70
2018-06-07T00:25:21.290Z,141.22
2018-06-07T00:27:55.040Z,139.43
2018-06-07T00:30:26.101Z,142.13
2018-06-07T00:32:57.490Z,137.85
2018-06-07T00:35:34.037Z,139.85
2018-06-07T00:38:05.283Z,141.82
2018-06-07T00:40:36.453Z,145.22
2018-06-07T00:43:07.605Z,141.73
2018-06-07T00:45:38.687Z,146.93
2018-06-07T00:48:09.999Z,142.00
2018-06-07T00:50:41.097Z,141.00
2018-06-07T00:53:12.276Z,144.55
2018-06-07T00:55:43.321Z,140.18
2018-06-07T00:58:14.495Z,140.22
2018-06-07T01:00:45.536Z,141.32
2018-06-07T01:03:16.748Z,136.03
2018-06-07T01:05:47.852Z,142.03
2018-06-07T01:08:19.250Z,139.95
2018-06-07T01:10:50.091Z,142.35
2018-06-07T01:13:22.307Z,151.78
2018-06-07T01:15:53.446Z,147.90
2018-06-07T01:18:24.628Z,146.65
2018-06-07T01:20:55.849Z,143.60
2018-06-07T01:23:27.079Z,147.65
2018-06-07T01:25:58.156Z,144.50
2018-06-07T01:28:29.292Z,137.50
2018-06-07T01:31:05.687Z,145.90
2018-06-07T01:33:37.897Z,144.15
2018-06-07T01:36:09.057Z,142.43
2018-06-07T01:38:51.353Z,140.00
2018-06-07T01:41:22.499Z,139.90
2018-06-07T01:44:02.939Z,134.72
2018-06-07T01:46:34.133Z,139.57
2018-06-07T01:49:05.560Z,136.10
2018-06-07T01:51:36.637Z,133.67
2018-06-07T01:54:07.767Z,136.47
2018-06-07T01:56:38.788Z,142.68
2018-06-07T01:59:09.820Z,139.28
2018-06-07T02:01:40.980Z,139.45
2018-06-07T02:04:12.316Z,134.03
2018-06-07T02:06:43.597Z,137.00
2018-06-07T02:09:14.736Z,135.28
2018-06-07T02:11:45.832Z,139.68
2018-06-07T02:14:16.941Z,130.85
2018-06-07T02:19:55.515Z,131.65
2018-06-07T02:22:26.613Z,136.72
2018-06-07T02:24:57.710Z,131.30
2018-06-07T02:27:28.796Z,136.68
2018-06-07T02:29:59.911Z,133.90
2018-06-07T02:32:31.073Z,133.90
2018-06-07T02:35:03.170Z,133.15
2018-06-07T02:37:34.092Z,135.22
2018-06-07T02:40:05.713Z,138.05
2018-06-07T02:42:36.752Z,137.68
2018-06-07T02:45:08.205Z,133.40
2018-06-07T02:47:39.475Z,123.47
2018-06-07T02:50:10.771Z,132.85
2018-06-07T02:52:41.846Z,135.68
2018-06-07T02:56:16.255Z,137.35
2018-06-07T02:58:47.392Z,138.40
2018-06-07T03:01:31.776Z,133.05
2018-06-07T03:04:02.941Z,131.05
2018-06-07T03:06:34.371Z,135.00
2018-06-07T03:09:06.740Z,139.32
2018-06-07T03:11:37.599Z,131.70
2018-06-07T03:14:08.760Z,128.97
2018-06-07T03:16:39.608Z,128.30
2018-06-07T03:19:10.457Z,132.63
2018-06-07T03:21:41.672Z,131.45
2018-06-07T03:24:12.869Z,131.05
2018-06-07T03:26:44.105Z,132.10
2018-06-07T03:29:19.057Z,130.78
2018-06-07T03:31:50.191Z,139.07
2018-06-07T03:34:21.281Z,135.10
2018-06-07T03:36:52.715Z,134.75
2018-06-07T03:39:23.915Z,134.47
2018-06-07T03:44:50.396Z,132.00
2018-06-07T03:47:21.643Z,141.37
2018-06-07T03:49:55.035Z,130.80
2018-06-07T03:52:26.328Z,134.50
2018-06-07T03:54:57.462Z,131.35
2018-06-07T03:57:28.605Z,137.07
2018-06-07T03:59:59.802Z,140.73
2018-06-07T04:02:30.952Z,137.45
2018-06-07T04:05:01.988Z,138.80
2018-06-07T04:07:33.322Z,134.85
2018-06-07T04:10:04.427Z,131.95
2018-06-07T04:12:35.986Z,132.70
2018-06-07T04:15:06.976Z,135.32
2018-06-07T04:17:40.075Z,136.28
2018-06-07T04:20:11.152Z,135.75
2018-06-07T04:22:42.659Z,136.07
2018-06-07T04:25:13.690Z,133.37
2018-06-07T04:27:44.894Z,135.25
2018-06-07T04:30:16.098Z,133.37
2018-06-07T04:32:47.505Z,132.05
2018-06-07T04:35:18.621Z,131.90
2018-06-07T04:37:54.379Z,135.10
2018-06-07T04:40:25.669Z,132.22
2018-06-07T04:42:56.761Z,129.10
2018-06-07T04:45:27.780Z,130.22
2018-06-07T04:47:58.816Z,132.37
2018-06-07T04:50:29.870Z,135.40
2018-06-07T04:53:04.534Z,133.60
2018-06-07T04:55:35.624Z,135.25
2018-06-07T04:58:06.782Z,131.60
2018-06-07T05:00:39.403Z,140.65
2018-06-07T05:03:10.850Z,140.05
2018-06-07T05:05:41.679Z,137.35
2018-06-07T05:08:12.805Z,134.25
2018-06-07T05:10:43.628Z,133.22
2018-06-07T05:13:14.472Z,134.52
2018-06-07T05:15:45.255Z,136.20
2018-06-07T05:18:16.096Z,135.57
2018-06-07T05:20:47.166Z,135.85
2018-06-07T05:23:18.611Z,137.20
2018-06-07T05:25:51.077Z,133.37
2018-06-07T05:28:22.660Z,136.62
2018-06-07T05:30:55.958Z,135.75
2018-06-07T05:33:27.545Z,126.62
2018-06-07T05:35:58.647Z,133.30
2018-06-07T05:38:29.870Z,137.65
2018-06-07T05:41:01.133Z,125.53
2018-06-07T05:43:33.081Z,130.35
2018-06-07T05:46:04.436Z,133.72
2018-06-07T05:48:35.734Z,134.90
2018-06-07T05:51:06.828Z,128.95
2018-06-07T05:53:38.005Z,132.07
2018-06-07T05:56:09.251Z,133.07
2018-06-07T05:58:45.474Z,131.60
2018-06-07T06:01:16.569Z,135.32
2018-06-07T06:03:47.744Z,133.32
2018-06-07T06:09:15.470Z,127.38
2018-06-07T06:11:46.857Z,135.50
2018-06-07T06:14:18.348Z,131.30
2018-06-07T06:16:49.509Z,138.70
2018-06-07T06:19:20.733Z,140.65
2018-06-07T06:21:52.879Z,137.77
2018-06-07T06:24:24.431Z,136.90
2018-06-07T06:26:55.765Z,134.93
2018-06-07T06:29:38.518Z,137.55
2018-06-07T06:32:09.713Z,137.52
2018-06-07T06:34:41.269Z,137.62
2018-06-07T06:37:12.776Z,139.85
2018-06-07T06:39:43.854Z,144.40
2018-06-07T06:42:15.140Z,147.45
2018-06-07T06:44:46.716Z,142.70
2018-06-07T06:47:17.760Z,142.70
2018-06-07T06:49:49.115Z,140.92
2018-06-07T06:52:27.643Z,135.32
2018-06-07T06:55:00.125Z,142.75
2018-06-07T06:57:31.353Z,134.27
2018-06-07T07:00:02.482Z,136.60
2018-06-07T07:02:33.671Z,135.95
2018-06-07T07:05:04.590Z,136.28
2018-06-07T07:07:35.805Z,134.87
2018-06-07T07:10:07.576Z,138.85
2018-06-07T07:12:38.640Z,140.32
2018-06-07T07:15:09.909Z,145.00
2018-06-07T07:17:41.004Z,137.37
2018-06-07T07:20:12.068Z,134.70
2018-06-07T07:22:43.274Z,136.28
2018-06-07T07:25:14.670Z,135.28
2018-06-07T07:27:45.883Z,137.40
2018-06-07T07:30:16.972Z,137.72
2018-06-07T07:32:48.172Z,134.00
2018-06-07T07:35:19.344Z,136.62
2018-06-07T07:37:50.589Z,134.75
2018-06-07T07:40:21.693Z,140.57
2018-06-07T07:42:52.935Z,138.07
2018-06-07T07:45:24.501Z,139.72
2018-06-07T07:48:09.984Z,141.05
2018-06-07T07:50:41.138Z,141.47
2018-06-07T07:53:12.188Z,141.92
2018-06-07T07:55:43.732Z,137.65
2018-06-07T07:58:14.793Z,140.30
2018-06-07T08:00:45.999Z,139.28
2018-06-07T08:03:17.557Z,141.68
2018-06-07T08:05:48.728Z,144.30
2018-06-07T08:08:19.736Z,140.32
2018-06-07T08:10:51.432Z,136.43
2018-06-07T08:13:22.550Z,141.65
2018-06-07T08:15:54.038Z,138.03
2018-06-07T08:18:36.206Z,143.40
2018-06-07T08:21:07.818Z,133.15
2018-06-07T08:23:38.616Z,138.95
2018-06-07T08:26:09.645Z,134.70
2018-06-07T08:28:40.516Z,143.17
2018-06-07T08:31:11.482Z,138.05
2018-06-07T08:33:42.664Z,138.12
2018-06-07T08:36:13.980Z,139.72
2018-06-07T08:38:45.091Z,135.25
2018-06-07T08:41:16.597Z,136.07
2018-06-07T08:43:48.047Z,136.25
2018-06-07T08:46:19.326Z,136.37
2018-06-07T08:48:50.561Z,136.97
2018-06-07T08:51:24.424Z,136.85
2018-06-07T08:53:56.228Z,140.03
2018-06-07T08:56:28.065Z,137.10
2018-06-07T08:59:04.728Z,144.22
2018-06-07T09:01:35.941Z,139.70
2018-06-07T09:04:07.238Z,135.10
2018-06-07T09:06:38.533Z,138.90
2018-06-07T09:09:09.835Z,141.40
2018-06-07T09:11:41.418Z,141.50
2018-06-07T09:14:12.833Z,140.73
2018-06-07T09:16:44.244Z,139.82
2018-06-07T09:19:15.412Z,140.45
2018-06-07T09:21:47.427Z,136.30
2018-06-07T09:24:18.562Z,126.90
2018-06-07T09:26:49.723Z,130.67
2018-06-07T09:29:20.837Z,133.40
2018-06-07T09:31:55.980Z,138.90
2018-06-07T09:34:27.026Z,137.82
2018-06-07T09:36:58.205Z,140.07
2018-06-07T09:39:29.406Z,139.43
2018-06-07T09:42:00.432Z,135.78
2018-06-07T09:44:31.479Z,138.82
2018-06-07T09:47:06.605Z,137.70
2018-06-07T09:49:37.792Z,140.92
2018-06-07T09:52:08.918Z,138.00
2018-06-07T09:54:39.741Z,133.97
2018-06-07T09:57:11.045Z,139.30
2018-06-07T09:59:42.216Z,136.32
2018-06-07T10:02:13.399Z,136.20
2018-06-07T10:04:44.614Z,136.90
2018-06-07T10:07:15.905Z,138.22
2018-06-07T10:09:47.218Z,139.03
2018-06-07T10:12:18.541Z,142.55
2018-06-07T10:14:49.608Z,139.22
2018-06-07T10:17:20.845Z,135.55
2018-06-07T10:19:52.313Z,139.90
2018-06-07T10:22:23.501Z,136.18
2018-06-07T10:24:55.592Z,139.12
2018-06-07T10:27:26.948Z,138.75
2018-06-07T10:29:58.116Z,140.05
2018-06-07T10:32:29.347Z,139.88
2018-06-07T10:35:00.422Z,136.10
2018-06-07T10:37:31.703Z,140.60
2018-06-07T10:40:02.796Z,140.12
2018-06-07T10:42:34.374Z,144.97
2018-06-07T10:45:05.624Z,143.13
2018-06-07T10:47:37.096Z,139.85
2018-06-07T10:50:08.205Z,137.30
2018-06-07T10:52:39.932Z,139.95
2018-06-07T10:55:10.886Z,135.40
2018-06-07T10:57:41.835Z,138.75
2018-06-07T11:00:13.285Z,130.15
2018-06-07T11:02:44.187Z,139.20
2018-06-07T11:05:15.141Z,137.37
2018-06-07T11:07:49.790Z,138.80
2018-06-07T11:10:21.128Z,140.32
2018-06-07T11:12:52.288Z,143.72
2018-06-07T11:15:23.699Z,140.05
2018-06-07T11:17:54.977Z,142.22
2018-06-07T11:20:26.326Z,138.95
2018-06-07T11:22:59.052Z,140.65
2018-06-07T11:25:30.132Z,148.78
2018-06-07T11:28:02.219Z,141.50
2018-06-07T11:30:33.528Z,138.32
2018-06-07T11:33:04.714Z,143.87
2018-06-07T11:35:35.732Z,132.90
2018-06-07T11:38:06.876Z,139.92
2018-06-07T11:40:53.473Z,137.60
2018-06-07T11:43:24.799Z,140.18
2018-06-07T11:45:55.972Z,140.10
2018-06-07T11:48:27.418Z,137.25
2018-06-07T11:50:58.675Z,137.45
2018-06-07T11:53:30.100Z,137.55
2018-06-07T11:56:01.192Z,139.82
2018-06-07T11:58:32.424Z,134.95
2018-06-07T12:01:03.221Z,141.62
2018-06-07T12:03:34.712Z,135.48
2018-06-07T12:06:05.890Z,141.97
2018-06-07T12:08:40.560Z,138.75
2018-06-07T12:11:11.923Z,137.90
2018-06-07T12:13:43.700Z,134.60
2018-06-07T12:16:21.653Z,141.97
2018-06-07T12:18:53.122Z,144.10
2018-06-07T12:21:24.375Z,143.40
2018-06-07T12:23:55.571Z,140.25
2018-06-07T12:26:26.818Z,143.43
2018-06-07T12:28:58.029Z,136.12
2018-06-07T12:31:49.013Z,144.70
2018-06-07T12:34:20.073Z,143.97
2018-06-07T12:36:51.243Z,138.65
2018-06-07T12:39:22.465Z,139.15
2018-06-07T12:41:53.312Z,134.52
2018-06-07T12:44:24.456Z,142.13
2018-06-07T12:46:55.364Z,139.52
2018-06-07T12:49:26.653Z,136.25
2018-06-07T12:51:57.516Z,147.22
2018-06-07T12:54:28.928Z,148.60
2018-06-07T12:57:00.531Z,145.20
2018-06-07T12:59:31.719Z,138.35
2018-06-07T13:02:02.820Z,142.62
2018-06-07T13:04:34.181Z,140.20
2018-06-07T13:07:05.454Z,141.18
2018-06-07T13:09:37.164Z,145.45
2018-06-07T13:12:08.234Z,142.30
2018-06-07T13:14:39.214Z,138.00
2018-06-07T13:17:10.718Z,137.70
2018-06-07T13:19:42.106Z,135.97
2018-06-07T13:22:13.353Z,142.20
2018-06-07T13:24:44.533Z,141.82
2018-06-07T13:27:15.403Z,142.35
2018-06-07T13:29:46.263Z,137.15
2018-06-07T13:32:17.364Z,150.97
2018-06-07T13:34:48.283Z,139.03
2018-06-07T13:37:19.223Z,139.10
2018-06-07T13:39:50.425Z,139.82
2018-06-07T13:42:21.328Z,137.60
2018-06-07T13:44:52.848Z,139.82
2018-06-07T13:47:23.939Z,135.35
2018-06-07T13:49:55.296Z,136.88
2018-06-07T13:52:26.151Z,140.00
2018-06-07T13:54:57.394Z,136.15
2018-06-07T13:57:28.553Z,137.97
2018-06-07T14:00:00.031Z,139.60
2018-06-07T14:02:31.230Z,136.70
2018-06-07T14:05:02.626Z,137.60
2018-06-07T14:07:41.216Z,140.25
2018-06-07T14:10:12.487Z,139.20
2018-06-07T14:12:43.673Z,138.40
2018-06-07T14:15:15.218Z,137.18
2018-06-07T14:17:46.388Z,139.30
2018-06-07T14:20:21.325Z,138.30
2018-06-07T14:22:52.451Z,129.07
2018-06-07T14:25:25.052Z,129.97
2018-06-07T14:27:57.274Z,141.68
2018-06-07T14:30:28.886Z,129.78
2018-06-07T14:32:59.923Z,135.50
2018-06-07T14:35:30.852Z,143.57
2018-06-07T14:38:02.203Z,145.57
2018-06-07T14:40:47.963Z,142.85
2018-06-07T14:43:19.816Z,144.17
2018-06-07T14:46:08.069Z,138.37
2018-06-07T14:48:39.320Z,141.53
2018-06-07T14:51:11.107Z,142.82
2018-06-07T14:53:55.816Z,142.72
2018-06-07T14:56:30.225Z,143.10
2018-06-07T14:59:04.277Z,138.43
2018-06-07T15:01:35.977Z,137.82
2018-06-07T15:04:06.955Z,140.40
2018-06-07T15:06:38.032Z,139.88
2018-06-07T15:09:09.446Z,142.20
2018-06-07T15:11:40.623Z,135.35
2018-06-07T15:14:11.762Z,139.80
2018-06-07T15:16:43.309Z,139.00
2018-06-07T15:19:15.588Z,138.60
2018-06-07T15:21:51.077Z,138.10
2018-06-07T15:24:22.154Z,136.35
2018-06-07T15:26:53.343Z,135.15
2018-06-07T15:29:43.488Z,139.05
2018-06-07T15:32:14.840Z,129.68
2018-06-07T15:34:45.877Z,133.97
2018-06-07T15:37:16.922Z,136.43
2018-06-07T15:39:48.003Z,129.78
2018-06-07T15:42:19.248Z,139.82
2018-06-07T15:46:58.557Z,136.70
2018-06-07T15:49:30.219Z,139.12
2018-06-07T15:52:06.948Z,141.12
2018-06-07T15:54:38.049Z,138.03
2018-06-07T15:57:09.222Z,140.55
2018-06-07T15:59:44.843Z,136.25
2018-06-07T16:02:15.657Z,139.82
2018-06-07T16:04:46.627Z,135.80
2018-06-07T16:07:17.716Z,140.03
2018-06-07T16:09:48.563Z,139.40
2018-06-07T16:12:19.409Z,140.43
2018-06-07T16:15:08.540Z,143.68
2018-06-07T16:17:39.666Z,138.07
2018-06-07T16:20:10.892Z,138.95
2018-06-07T16:22:42.160Z,143.28
2018-06-07T16:25:13.292Z,142.50
2018-06-07T16:27:44.505Z,137.30
2018-06-07T16:30:21.479Z,150.00
2018-06-07T16:32:52.508Z,139.82
2018-06-07T16:35:23.832Z,143.28
2018-06-07T16:37:55.029Z,140.12
2018-06-07T16:40:26.096Z,146.85
2018-06-07T16:42:57.188Z,148.97
2018-06-07T16:45:28.554Z,149.12
2018-06-07T16:47:59.844Z,147.32
2018-06-07T16:50:36.063Z,143.93
2018-06-07T16:53:07.628Z,147.98
2018-06-07T16:55:38.887Z,150.05
2018-06-07T16:58:10.176Z,142.15
2018-06-07T17:00:41.269Z,145.95
2018-06-07T17:03:30.215Z,148.17
2018-06-07T17:06:01.564Z,141.92
2018-06-07T17:08:32.536Z,144.57
2018-06-07T17:11:03.747Z,141.50
2018-06-07T17:13:34.954Z,141.00
2018-06-07T17:16:06.820Z,146.90
2018-06-07T17:18:56.224Z,143.32
2018-06-07T17:21:27.683Z,146.43
2018-06-07T17:23:58.716Z,145.05
2018-06-07T17:26:29.548Z,144.93
2018-06-07T17:29:00.354Z,143.82
2018-06-07T17:31:51.604Z,138.75
2018-06-07T17:34:22.765Z,139.32
2018-06-07T17:36:54.048Z,143.93
2018-06-07T17:39:25.726Z,146.20
2018-06-07T17:41:56.576Z,143.80
2018-06-07T17:44:27.560Z,139.90
2018-06-07T17:46:58.661Z,136.92
2018-06-07T17:49:29.932Z,136.70
2018-06-07T17:52:01.503Z,131.00
2018-06-07T17:54:32.736Z,135.40
2018-06-07T17:57:03.612Z,137.92
2018-06-07T17:59:34.524Z,137.52
2018-06-07T18:02:06.255Z,133.45
2018-06-07T18:04:37.587Z,138.85
2018-06-07T18:07:09.067Z,141.55
2018-06-07T18:09:40.400Z,142.28
2018-06-07T18:12:11.704Z,147.93
2018-06-07T18:14:43.009Z,142.77
2018-06-07T18:17:14.343Z,141.95
2018-06-07T18:19:47.491Z,138.75
2018-06-07T18:22:19.119Z,145.87
2018-06-07T18:24:51.363Z,139.07
2018-06-07T18:27:22.723Z,143.32
2018-06-07T18:29:54.128Z,144.68
2018-06-07T18:32:25.585Z,141.03
2018-06-07T18:34:56.952Z,137.55
2018-06-07T18:37:29.124Z,145.90
2018-06-07T18:40:00.558Z,139.25
2018-06-07T18:42:33.231Z,139.20
2018-06-07T18:45:05.623Z,140.75
2018-06-07T18:47:36.688Z,142.70
2018-06-07T18:50:07.876Z,134.07
2018-06-07T18:52:39.441Z,137.47
2018-06-07T18:55:10.899Z,133.00
2018-06-07T18:57:42.568Z,132.57
2018-06-07T19:00:14.136Z,134.57
2018-06-07T19:02:46.265Z,135.57
2018-06-07T19:05:17.342Z,139.07
2018-06-07T19:07:48.510Z,137.12
2018-06-07T19:10:20.635Z,136.60
2018-06-07T19:12:52.172Z,134.85
2018-06-07T19:15:28.188Z,130.90
2018-06-07T19:17:59.686Z,137.47
2018-06-07T19:21:06.804Z,136.12
2018-06-07T19:23:37.662Z,126.18
2018-06-07T19:26:13.881Z,128.42
2018-06-07T19:28:45.650Z,132.52
2018-06-07T19:31:20.863Z,134.43
2018-06-07T19:33:57.149Z,135.93
2018-06-07T19:36:28.374Z,134.03
2018-06-07T19:39:06.444Z,130.93
2018-06-07T19:41:42.295Z,135.12
2018-06-07T19:44:13.163Z,128.40
2018-06-07T19:46:57.970Z,129.85
2018-06-07T19:49:29.205Z,129.35
2018-06-07T19:52:00.524Z,132.67
2018-06-07T19:54:37.957Z,131.95
2018-06-07T19:57:09.057Z,131.97
2018-06-07T19:59:40.193Z,131.70
2018-06-07T20:02:11.385Z,135.45
2018-06-07T20:04:42.480Z,137.12
2018-06-07T20:07:13.736Z,129.12
2018-06-07T20:09:45.133Z,131.22
2018-06-07T20:12:16.308Z,138.60
2018-06-07T20:15:09.532Z,131.10
2018-06-07T20:17:40.792Z,134.78
2018-06-07T20:20:11.956Z,129.15
2018-06-07T20:22:56.509Z,136.77
2018-06-07T20:25:27.931Z,130.32
2018-06-07T20:27:59.207Z,131.37
2018-06-07T20:30:34.603Z,134.05
2018-06-07T20:33:05.403Z,135.60
2018-06-07T20:35:36.588Z,132.22
2018-06-07T20:38:07.751Z,135.40
2018-06-07T20:40:39.083Z,132.20
2018-06-07T20:43:10.387Z,138.43
2018-06-07T20:45:41.590Z,131.50
2018-06-07T20:48:12.612Z,132.60
2018-06-07T20:50:43.980Z,135.35
2018-06-07T20:53:15.991Z,127.30
2018-06-07T20:55:47.212Z,127.40
2018-06-07T20:58:18.428Z,130.70
2018-06-07T21:00:49.627Z,130.10
2018-06-07T21:03:20.632Z,130.75
2018-06-07T21:05:54.036Z,129.65
2018-06-07T21:08:25.157Z,131.40
2018-06-07T21:10:56.759Z,134.75
2018-06-07T21:13:28.167Z,142.03
2018-06-07T21:15:59.352Z,132.90
2018-06-07T21:18:30.571Z,135.05
2018-06-07T21:21:07.109Z,137.32
2018-06-07T21:23:38.162Z,139.77
2018-06-07T21:26:10.243Z,133.87
2018-06-07T21:28:41.205Z,137.95
2018-06-07T21:31:12.695Z,136.47
2018-06-07T21:33:43.760Z,134.72
2018-06-07T21:36:26.579Z,132.52
2018-06-07T21:38:57.383Z,136.68
2018-06-07T21:41:28.557Z,133.70
2018-06-07T21:43:59.645Z,129.32
2018-06-07T21:46:30.520Z,129.63
2018-06-07T21:49:01.332Z,127.58
2018-06-07T21:51:34.240Z,127.55
2018-06-07T21:54:05.146Z,132.18
2018-06-07T21:56:36.061Z,134.05
2018-06-07T21:59:08.039Z,130.50
2018-06-07T22:01:39.172Z,133.70
2018-06-07T22:04:10.288Z,136.55
2018-06-07T22:06:44.013Z,138.37
2018-06-07T22:09:15.047Z,134.75
2018-06-07T22:11:46.436Z,130.12
2018-06-07T22:14:17.486Z,129.42
2018-06-07T22:16:49.788Z,131.12
2018-06-07T22:19:20.884Z,130.35
2018-06-07T22:21:52.163Z,128.47
2018-06-07T22:24:23.279Z,131.82
2018-06-07T22:26:54.673Z,130.97
2018-06-07T22:29:25.644Z,132.00
2018-06-07T22:31:56.981Z,133.30
2018-06-07T22:34:28.019Z,127.32
2018-06-07T22:36:59.048Z,129.78
2018-06-07T22:39:30.241Z,130.52
2018-06-07T22:42:01.253Z,131.82
2018-06-07T22:44:44.867Z,131.93
2018-06-07T22:47:15.943Z,130.07
2018-06-07T22:49:46.853Z,130.75
2018-06-07T22:52:41.850Z,133.85
2018-06-07T22:55:12.871Z,132.93
2018-06-07T22:57:44.564Z,128.05
2018-06-07T23:00:17.044Z,129.42
2018-06-07T23:02:53.505Z,127.27
2018-06-07T23:05:24.664Z,133.65
2018-06-07T23:07:55.699Z,134.95
2018-06-07T23:10:26.538Z,130.78
2018-06-07T23:12:57.928Z,128.62
2018-06-07T23:15:28.804Z,132.37
2018-06-07T23:17:59.633Z,132.50
2018-06-07T23:20:32.163Z,132.30
2018-06-07T23:23:03.889Z,137.15
2018-06-07T23:25:35.092Z,137.18
2018-06-07T23:28:06.654Z,139.22
2018-06-07T23:30:37.961Z,134.50
2018-06-07T23:33:09.265Z,135.65
2018-06-07T23:35:40.292Z,133.97
2018-06-07T23:38:11.508Z,132.80
2018-06-07T23:40:46.637Z,133.95
2018-06-07T23:43:17.939Z,130.45
2018-06-07T23:45:49.219Z,131.15
2018-06-07T23:48:20.348Z,133.87
2018-06-07T23:50:51.569Z,127.75
2018-06-07T23:53:22.637Z,130.27
2018-06-07T23:55:53.777Z,135.28
2018-06-07T23:58:25.013Z,129.90
